Terminal Aerodrome Forecast
Issued by NWS

Home | Current Version | Previous Version | Text Only | Print | Product List | Glossary On
Versions: 1 2 3 4 5 6 7 8 9 10 11 12 13 14
000
FTUS44 KCRP 021126
TAFLRD
TAF
KLRD 021126Z 0212/0312 13006KT P6SM SCT020 BKN100
      TEMPO 0212/0216 BKN020
     FM021600 16015KT P6SM SCT035 SCT100
     FM022000 15018G24KT P6SM SCT060 SCT150
     FM030400 14015KT P6SM FEW025
     FM030800 15010KT P6SM BKN015=

USA.gov is the U.S. government's official web portal to all federal, state and local government web resources and services.